createdAt,value
2023-05-10T00:01:00.795Z,4.78
2023-05-10T00:02:03.321Z,4.63
2023-05-10T00:03:06.185Z,5.10
2023-05-10T00:04:08.720Z,5.47
2023-05-10T00:05:11.250Z,4.93
2023-05-10T00:06:13.631Z,4.43
2023-05-10T00:07:18.082Z,4.70
2023-05-10T00:08:20.640Z,4.65
2023-05-10T00:09:22.795Z,5.10
2023-05-10T00:10:25.155Z,4.40
2023-05-10T00:11:27.334Z,4.90
2023-05-10T00:12:29.469Z,4.95
2023-05-10T00:13:32.840Z,5.28
2023-05-10T00:14:35.019Z,5.05
2023-05-10T00:15:37.386Z,5.07
2023-05-10T00:16:40.156Z,4.60
2023-05-10T00:17:42.394Z,5.40
2023-05-10T00:18:44.816Z,4.82
2023-05-10T00:19:47.044Z,5.38
2023-05-10T00:20:49.893Z,4.65
2023-05-10T00:21:52.290Z,4.75
2023-05-10T00:22:54.484Z,5.00
2023-05-10T00:23:56.894Z,4.78
2023-05-10T00:24:59.813Z,5.30
2023-05-10T00:26:02.145Z,5.10
2023-05-10T00:27:04.996Z,5.15
2023-05-10T00:28:07.344Z,4.35
2023-05-10T00:29:09.741Z,4.75
2023-05-10T00:30:12.029Z,4.75
2023-05-10T00:31:15.628Z,5.22
2023-05-10T00:32:17.999Z,5.15
2023-05-10T00:33:20.330Z,5.55
2023-05-10T00:34:23.854Z,4.78
2023-05-10T00:35:27.031Z,4.80
2023-05-10T00:36:29.687Z,5.65
2023-05-10T00:37:32.074Z,5.25
2023-05-10T00:38:35.067Z,4.72
2023-05-10T00:39:37.442Z,5.10
2023-05-10T00:40:39.698Z,5.10
2023-05-10T00:41:47.000Z,5.20
2023-05-10T00:42:49.344Z,4.95
2023-05-10T00:43:51.914Z,5.28
2023-05-10T00:44:54.116Z,5.07
2023-05-10T00:45:56.981Z,5.32
2023-05-10T00:47:00.307Z,5.30
2023-05-10T00:48:03.806Z,5.05
2023-05-10T00:49:07.181Z,5.88
2023-05-10T00:50:10.296Z,5.10
2023-05-10T00:51:12.544Z,5.32
2023-05-10T00:52:15.172Z,5.60
2023-05-10T00:53:17.939Z,5.38
2023-05-10T00:54:20.427Z,4.32
2023-05-10T00:55:22.706Z,5.00
2023-05-10T00:56:26.226Z,5.28
2023-05-10T00:57:28.406Z,6.00
2023-05-10T00:58:31.935Z,5.45
2023-05-10T00:59:34.544Z,5.63
2023-05-10T01:00:39.549Z,5.65
2023-05-10T01:01:42.054Z,6.18
2023-05-10T01:02:45.049Z,5.35
2023-05-10T01:03:48.202Z,5.22
2023-05-10T01:04:53.142Z,5.60
2023-05-10T01:05:56.192Z,5.72
2023-05-10T01:06:58.814Z,5.63
2023-05-10T01:08:01.028Z,5.15
2023-05-10T01:09:03.195Z,5.38
2023-05-10T01:10:07.820Z,4.97
2023-05-10T01:11:10.520Z,5.22
2023-05-10T01:12:13.381Z,5.35
2023-05-10T01:13:25.933Z,5.57
2023-05-10T01:14:29.330Z,5.65
2023-05-10T01:15:32.402Z,5.57
2023-05-10T01:16:39.168Z,5.85
2023-05-10T01:17:45.348Z,5.72
2023-05-10T01:18:48.052Z,5.60
2023-05-10T01:19:50.912Z,5.80
2023-05-10T01:21:10.736Z,5.85
2023-05-10T01:23:24.239Z,5.20
2023-05-10T01:24:52.074Z,5.55
2023-05-10T01:26:08.822Z,5.28
2023-05-10T01:27:26.232Z,5.78
2023-05-10T01:28:34.161Z,6.03
2023-05-10T01:30:14.631Z,5.65
2023-05-10T01:32:09.172Z,5.75
2023-05-10T01:33:17.207Z,6.00
2023-05-10T01:34:35.197Z,5.63
2023-05-10T01:35:48.816Z,5.80
2023-05-10T01:37:14.304Z,5.80
2023-05-10T01:38:43.276Z,5.72
2023-05-10T01:40:06.949Z,5.75
2023-05-10T01:41:16.150Z,5.20
2023-05-10T01:42:27.512Z,6.20
2023-05-10T01:43:43.178Z,5.78
2023-05-10T01:45:11.814Z,6.10
2023-05-10T01:46:29.102Z,5.47
2023-05-10T01:47:51.375Z,5.90
2023-05-10T01:48:56.706Z,5.72
2023-05-10T01:50:04.086Z,6.15
2023-05-10T01:51:07.802Z,6.13
2023-05-10T01:52:13.578Z,6.30
2023-05-10T01:53:20.169Z,6.15
2023-05-10T01:54:24.334Z,5.90
2023-05-10T01:55:31.736Z,6.25
2023-05-10T01:56:37.114Z,6.43
2023-05-10T01:57:42.122Z,6.72
2023-05-10T01:58:48.285Z,6.03
2023-05-10T01:59:51.975Z,6.65
2023-05-10T02:00:55.164Z,6.53
2023-05-10T02:02:00.506Z,6.43
2023-05-10T02:03:11.517Z,6.32
2023-05-10T02:04:17.878Z,6.72
2023-05-10T02:05:22.649Z,6.18
2023-05-10T02:06:27.652Z,6.38
2023-05-10T02:07:31.002Z,5.78
2023-05-10T02:08:36.860Z,6.03
2023-05-10T02:09:39.563Z,6.05
2023-05-10T02:10:43.931Z,6.45
2023-05-10T02:11:48.152Z,5.72
2023-05-10T02:12:52.399Z,5.70
2023-05-10T02:13:57.098Z,5.68
2023-05-10T02:15:06.715Z,6.03
2023-05-10T02:16:09.698Z,6.38
2023-05-10T02:17:12.853Z,6.05
2023-05-10T02:18:17.216Z,5.75
2023-05-10T02:19:20.974Z,5.72
2023-05-10T02:20:25.511Z,5.72
2023-05-10T02:21:30.119Z,5.90
2023-05-10T02:22:32.828Z,5.75
2023-05-10T02:23:36.326Z,6.45
2023-05-10T02:24:40.576Z,5.85
2023-05-10T02:25:44.689Z,6.80
2023-05-10T02:26:49.362Z,6.20
2023-05-10T02:27:54.993Z,6.00
2023-05-10T02:28:59.607Z,6.43
2023-05-10T02:30:02.580Z,6.25
2023-05-10T02:31:06.246Z,5.82
2023-05-10T02:32:11.020Z,5.93
2023-05-10T02:33:15.352Z,5.70
2023-05-10T02:34:18.233Z,5.32
2023-05-10T02:35:23.377Z,5.95
2023-05-10T02:36:28.442Z,6.20
2023-05-10T02:37:35.488Z,5.78
2023-05-10T02:38:41.102Z,5.53
2023-05-10T02:39:46.498Z,5.72
2023-05-10T02:40:49.325Z,5.60
2023-05-10T02:41:53.373Z,5.78
2023-05-10T02:42:58.224Z,5.05
2023-05-10T02:44:02.545Z,5.45
2023-05-10T02:45:12.030Z,5.53
2023-05-10T02:46:14.476Z,5.85
2023-05-10T02:47:17.039Z,4.88
2023-05-10T02:48:19.497Z,5.72
2023-05-10T02:49:21.894Z,4.70
2023-05-10T02:50:31.095Z,5.65
2023-05-10T02:51:37.199Z,5.70
2023-05-10T02:52:50.739Z,5.63
2023-05-10T02:53:55.066Z,4.90
2023-05-10T02:55:01.853Z,5.07
2023-05-10T02:56:09.130Z,5.40
2023-05-10T02:57:17.150Z,5.10
2023-05-10T02:58:22.136Z,4.93
2023-05-10T02:59:24.811Z,5.47
2023-05-10T03:00:27.116Z,5.22
2023-05-10T03:01:30.501Z,5.05
2023-05-10T03:02:33.952Z,5.10
2023-05-10T03:03:36.440Z,4.93
2023-05-10T03:04:39.333Z,4.80
2023-05-10T03:05:41.764Z,5.57
2023-05-10T03:06:44.878Z,4.80
2023-05-10T03:07:48.397Z,4.95
2023-05-10T03:08:50.770Z,4.45
2023-05-10T03:09:53.347Z,5.05
2023-05-10T03:11:11.355Z,5.15
2023-05-10T03:12:53.620Z,4.93
2023-05-10T03:14:17.762Z,5.35
2023-05-10T03:15:32.700Z,4.50
2023-05-10T03:16:47.834Z,5.03
2023-05-10T03:18:02.914Z,4.40
2023-05-10T03:19:21.084Z,4.60
2023-05-10T03:20:32.586Z,4.68
2023-05-10T03:21:39.036Z,4.63
2023-05-10T03:22:47.934Z,5.00
2023-05-10T03:23:57.543Z,4.97
2023-05-10T03:25:06.783Z,5.53
2023-05-10T03:26:10.960Z,4.32
2023-05-10T03:27:15.334Z,4.90
2023-05-10T03:28:20.044Z,4.45
2023-05-10T03:29:23.954Z,4.72
2023-05-10T03:30:26.801Z,4.70
2023-05-10T03:31:29.416Z,5.20
2023-05-10T03:32:33.523Z,4.85
2023-05-10T03:33:36.314Z,4.80
2023-05-10T03:34:43.791Z,5.00
2023-05-10T03:35:46.783Z,4.22
2023-05-10T03:36:50.572Z,4.60
2023-05-10T03:37:53.296Z,5.35
2023-05-10T03:38:56.302Z,4.60
2023-05-10T03:39:58.667Z,5.15
2023-05-10T03:41:00.968Z,4.93
2023-05-10T03:42:03.759Z,4.20
2023-05-10T03:43:07.085Z,4.72
2023-05-10T03:44:09.320Z,4.40
2023-05-10T03:45:11.856Z,4.32
2023-05-10T03:46:14.090Z,5.53
2023-05-10T03:47:17.283Z,4.70
2023-05-10T03:48:19.522Z,4.50
2023-05-10T03:49:21.769Z,4.32
2023-05-10T03:50:24.533Z,4.40
2023-05-10T03:51:29.341Z,5.63
2023-05-10T03:52:31.594Z,5.00
2023-05-10T03:53:33.853Z,4.85
2023-05-10T03:54:36.290Z,4.35
2023-05-10T03:55:38.530Z,4.47
2023-05-10T03:56:41.116Z,4.72
2023-05-10T03:57:43.447Z,4.95
2023-05-10T03:58:45.954Z,4.30
2023-05-10T03:59:48.146Z,5.22
2023-05-10T04:00:50.451Z,4.22
2023-05-10T04:01:52.717Z,4.55
2023-05-10T04:02:55.119Z,4.05
2023-05-10T04:03:57.526Z,4.30
2023-05-10T04:04:59.804Z,4.07
2023-05-10T04:06:03.248Z,3.95
2023-05-10T04:07:05.733Z,4.70
2023-05-10T04:08:08.162Z,3.85
2023-05-10T04:09:10.653Z,5.05
2023-05-10T04:10:13.707Z,4.22
2023-05-10T04:11:16.398Z,4.50
2023-05-10T04:12:18.614Z,3.88
2023-05-10T04:13:20.912Z,4.28
2023-05-10T04:14:23.447Z,4.18
2023-05-10T04:15:25.628Z,4.65
2023-05-10T04:16:27.991Z,4.50
2023-05-10T04:17:30.630Z,4.30
2023-05-10T04:18:32.992Z,4.55
2023-05-10T04:19:35.366Z,3.88
2023-05-10T04:20:37.773Z,4.38
2023-05-10T04:21:39.990Z,4.43
2023-05-10T04:22:42.428Z,4.05
2023-05-10T04:23:44.801Z,4.18
2023-05-10T04:24:46.967Z,4.65
2023-05-10T04:25:49.469Z,3.85
2023-05-10T04:26:52.056Z,4.15
2023-05-10T04:27:54.446Z,4.13
2023-05-10T04:28:56.633Z,4.10
2023-05-10T04:29:59.433Z,4.22
2023-05-10T04:31:06.375Z,4.07
2023-05-10T04:32:09.055Z,3.92
2023-05-10T04:33:11.450Z,4.10
2023-05-10T04:34:13.644Z,4.40
2023-05-10T04:35:16.030Z,3.60
2023-05-10T04:36:18.154Z,3.88
2023-05-10T04:37:22.263Z,3.78
2023-05-10T04:38:25.225Z,4.07
2023-05-10T04:39:27.381Z,4.00
2023-05-10T04:40:30.064Z,4.38
2023-05-10T04:41:32.382Z,3.70
2023-05-10T04:42:34.809Z,4.78
2023-05-10T04:43:37.907Z,4.25
2023-05-10T04:44:40.112Z,4.03
2023-05-10T04:45:42.333Z,3.85
2023-05-10T04:46:44.802Z,3.70
2023-05-10T04:47:47.132Z,3.75
2023-05-10T04:48:49.346Z,4.30
2023-05-10T04:49:51.674Z,4.07
2023-05-10T04:50:53.963Z,4.28
2023-05-10T04:51:56.456Z,4.05
2023-05-10T04:52:59.078Z,4.05
2023-05-10T04:54:06.547Z,3.72
2023-05-10T04:55:10.560Z,3.70
2023-05-10T04:56:12.958Z,3.95
2023-05-10T04:57:15.181Z,4.38
2023-05-10T04:58:17.546Z,3.90
2023-05-10T04:59:19.766Z,4.07
2023-05-10T05:00:22.085Z,3.65
2023-05-10T05:01:24.521Z,3.92
2023-05-10T05:02:26.797Z,3.50
2023-05-10T05:03:29.232Z,3.55
2023-05-10T05:04:32.161Z,3.30
2023-05-10T05:05:34.555Z,4.43
2023-05-10T05:06:36.818Z,3.97
2023-05-10T05:07:39.663Z,3.75
2023-05-10T05:08:41.913Z,4.10
2023-05-10T05:09:44.101Z,4.03
2023-05-10T05:10:46.336Z,3.78
2023-05-10T05:11:48.513Z,3.63
2023-05-10T05:12:50.909Z,3.70
2023-05-10T05:13:53.329Z,3.75
2023-05-10T05:14:55.496Z,3.97
2023-05-10T05:15:57.968Z,3.40
2023-05-10T05:17:00.143Z,3.70
2023-05-10T05:18:02.373Z,3.35
2023-05-10T05:19:04.820Z,4.32
2023-05-10T05:20:08.331Z,4.05
2023-05-10T05:21:20.474Z,3.90
2023-05-10T05:22:28.493Z,3.50
2023-05-10T05:23:31.343Z,3.60
2023-05-10T05:24:39.789Z,3.58
2023-05-10T05:25:43.005Z,3.15
2023-05-10T05:26:45.396Z,3.88
2023-05-10T05:27:47.583Z,3.17
2023-05-10T05:28:52.917Z,3.42
2023-05-10T05:29:55.654Z,3.72
2023-05-10T05:30:57.887Z,3.00
2023-05-10T05:32:00.459Z,3.63
2023-05-10T05:33:02.980Z,3.90
2023-05-10T05:34:05.468Z,3.42
2023-05-10T05:35:08.192Z,3.58
2023-05-10T05:36:10.392Z,3.85
2023-05-10T05:37:17.294Z,4.22
2023-05-10T05:38:19.727Z,3.10
2023-05-10T05:39:22.184Z,3.70
2023-05-10T05:40:24.387Z,3.30
2023-05-10T05:41:27.039Z,3.50
2023-05-10T05:42:29.282Z,3.22
2023-05-10T05:43:35.043Z,3.33
2023-05-10T05:44:39.544Z,3.35
2023-05-10T05:45:41.834Z,3.90
2023-05-10T05:46:44.230Z,3.47
2023-05-10T05:47:46.458Z,3.10
2023-05-10T05:48:49.003Z,3.20
2023-05-10T05:49:51.256Z,2.90
2023-05-10T05:50:57.564Z,3.53
2023-05-10T05:52:04.423Z,3.50
2023-05-10T05:53:06.586Z,3.28
2023-05-10T05:54:08.996Z,3.38
2023-05-10T05:55:11.298Z,2.97
2023-05-10T05:56:13.563Z,3.17
2023-05-10T05:57:16.000Z,3.88
2023-05-10T05:58:18.359Z,3.67
2023-05-10T05:59:20.724Z,3.30
2023-05-10T06:00:23.779Z,3.67
2023-05-10T06:01:26.188Z,3.40
2023-05-10T06:02:28.511Z,3.28
2023-05-10T06:03:31.076Z,4.05
2023-05-10T06:04:33.768Z,3.42
2023-05-10T06:05:35.978Z,2.97
2023-05-10T06:06:38.165Z,3.30
2023-05-10T06:07:43.207Z,2.88
2023-05-10T06:08:45.429Z,3.55
2023-05-10T06:09:48.084Z,3.38
2023-05-10T06:10:50.301Z,3.17
2023-05-10T06:11:52.506Z,3.30
2023-05-10T06:12:55.100Z,3.38
2023-05-10T06:13:57.317Z,3.17
2023-05-10T06:14:59.802Z,3.10
2023-05-10T06:16:03.765Z,3.75
2023-05-10T06:17:06.210Z,3.20
2023-05-10T06:18:08.728Z,2.95
2023-05-10T06:19:11.101Z,3.30
2023-05-10T06:20:14.114Z,3.58
2023-05-10T06:21:17.243Z,3.05
2023-05-10T06:22:19.648Z,3.08
2023-05-10T06:23:23.180Z,3.10
2023-05-10T06:24:25.864Z,2.92
2023-05-10T06:25:28.141Z,3.00
2023-05-10T06:26:30.596Z,2.75
2023-05-10T06:27:32.811Z,3.10
2023-05-10T06:28:35.047Z,3.10
2023-05-10T06:29:37.517Z,3.08
2023-05-10T06:30:40.878Z,3.08
2023-05-10T06:31:43.107Z,2.50
2023-05-10T06:32:46.216Z,2.70
2023-05-10T06:33:49.063Z,2.97
2023-05-10T06:34:51.441Z,2.70
2023-05-10T06:35:53.656Z,2.72
2023-05-10T06:36:56.027Z,2.50
2023-05-10T06:37:58.201Z,2.45
2023-05-10T06:39:00.588Z,2.50
2023-05-10T06:40:03.151Z,3.10
2023-05-10T06:41:05.470Z,2.65
2023-05-10T06:42:07.715Z,2.45
2023-05-10T06:43:10.887Z,3.05
2023-05-10T06:44:13.969Z,2.63
2023-05-10T06:45:17.736Z,2.22
2023-05-10T06:46:20.269Z,2.25
2023-05-10T06:47:23.103Z,2.40
2023-05-10T06:48:25.333Z,3.05
2023-05-10T06:49:27.603Z,2.88
2023-05-10T06:50:30.073Z,2.20
2023-05-10T06:51:32.520Z,2.35
2023-05-10T06:52:35.110Z,2.60
2023-05-10T06:53:37.492Z,2.63
2023-05-10T06:54:39.815Z,2.03
2023-05-10T06:55:42.206Z,2.42
2023-05-10T06:56:45.692Z,2.17
2023-05-10T06:57:48.616Z,2.78
2023-05-10T06:58:50.862Z,3.58
2023-05-10T06:59:53.732Z,2.90
2023-05-10T07:00:56.393Z,3.10
2023-05-10T07:01:58.989Z,2.85
2023-05-10T07:03:01.446Z,2.60
2023-05-10T07:04:03.732Z,2.60
2023-05-10T07:05:06.975Z,2.58
2023-05-10T07:06:15.649Z,2.35
2023-05-10T07:07:20.868Z,2.35
2023-05-10T07:08:23.034Z,2.60
2023-05-10T07:09:25.463Z,2.67
2023-05-10T07:10:27.941Z,2.40
2023-05-10T07:11:30.225Z,2.65
2023-05-10T07:12:32.526Z,2.40
2023-05-10T07:13:35.828Z,2.38
2023-05-10T07:14:38.293Z,2.17
2023-05-10T07:15:40.875Z,2.40
2023-05-10T07:16:43.257Z,2.67
2023-05-10T07:17:46.478Z,2.38
2023-05-10T07:18:49.102Z,2.50
2023-05-10T07:19:51.320Z,2.72
2023-05-10T07:20:53.920Z,2.50
2023-05-10T07:21:56.321Z,2.25
2023-05-10T07:22:58.484Z,2.22
2023-05-10T07:24:01.850Z,2.35
2023-05-10T07:25:04.806Z,2.50
2023-05-10T07:26:07.248Z,2.60
2023-05-10T07:27:10.111Z,2.60
2023-05-10T07:28:12.595Z,2.55
2023-05-10T07:29:14.840Z,2.28
2023-05-10T07:30:17.083Z,2.05
2023-05-10T07:31:19.754Z,2.90
2023-05-10T07:32:22.607Z,2.70
2023-05-10T07:33:24.862Z,2.53
2023-05-10T07:34:27.079Z,2.50
2023-05-10T07:35:29.245Z,2.42
2023-05-10T07:36:32.148Z,2.70
2023-05-10T07:37:34.403Z,2.35
2023-05-10T07:38:38.936Z,2.75
2023-05-10T07:39:42.529Z,2.67
2023-05-10T07:40:45.146Z,2.17
2023-05-10T07:41:47.634Z,2.28
2023-05-10T07:42:49.998Z,2.92
2023-05-10T07:43:52.451Z,2.90
2023-05-10T07:44:54.644Z,3.13
2023-05-10T07:45:58.737Z,2.47
2023-05-10T07:47:00.985Z,2.28
2023-05-10T07:48:03.310Z,2.83
2023-05-10T07:49:05.849Z,2.42
2023-05-10T07:50:08.829Z,2.40
2023-05-10T07:51:11.892Z,2.00
2023-05-10T07:52:14.685Z,2.42
2023-05-10T07:53:17.100Z,2.53
2023-05-10T07:54:19.482Z,2.83
2023-05-10T07:55:22.551Z,2.53
2023-05-10T07:56:26.107Z,2.72
2023-05-10T07:57:28.308Z,2.08
2023-05-10T07:58:31.146Z,2.60
2023-05-10T07:59:34.058Z,2.20
2023-05-10T08:00:36.447Z,2.70
2023-05-10T08:01:38.835Z,2.38
2023-05-10T08:02:41.962Z,2.58
2023-05-10T08:03:44.507Z,2.42
2023-05-10T08:04:50.640Z,2.33
2023-05-10T08:05:52.853Z,2.40
2023-05-10T08:06:55.297Z,2.33
2023-05-10T08:07:57.658Z,2.38
2023-05-10T08:09:00.133Z,2.75
2023-05-10T08:10:03.820Z,2.72
2023-05-10T08:11:06.004Z,2.63
2023-05-10T08:12:08.536Z,2.97
2023-05-10T08:13:12.401Z,2.85
2023-05-10T08:14:14.709Z,3.10
2023-05-10T08:15:17.229Z,3.75
2023-05-10T08:16:20.386Z,3.30
2023-05-10T08:17:23.474Z,3.03
2023-05-10T08:18:27.201Z,2.72
2023-05-10T08:19:29.485Z,2.72
2023-05-10T08:20:31.719Z,2.60
2023-05-10T08:21:34.215Z,2.88
2023-05-10T08:22:36.779Z,2.90
2023-05-10T08:23:40.364Z,3.10
2023-05-10T08:24:43.040Z,2.95
2023-05-10T08:25:45.380Z,2.75
2023-05-10T08:26:48.670Z,2.50
2023-05-10T08:27:51.716Z,2.25
2023-05-10T08:28:53.975Z,3.13
2023-05-10T08:29:56.454Z,2.92
2023-05-10T08:30:58.842Z,2.70
2023-05-10T08:32:02.029Z,3.17
2023-05-10T08:33:09.229Z,2.85
2023-05-10T08:34:11.507Z,2.72
2023-05-10T08:35:13.771Z,2.92
2023-05-10T08:36:20.692Z,2.80
2023-05-10T08:37:24.906Z,3.65
2023-05-10T08:38:27.182Z,2.33
2023-05-10T08:39:30.923Z,2.85
2023-05-10T08:40:33.240Z,2.70
2023-05-10T08:41:39.939Z,3.13
2023-05-10T08:42:51.755Z,3.30
2023-05-10T08:43:54.993Z,3.20
2023-05-10T08:44:58.383Z,3.30
2023-05-10T08:46:03.976Z,2.70
2023-05-10T08:47:08.070Z,2.60
2023-05-10T08:48:11.434Z,3.70
2023-05-10T08:49:19.600Z,3.17
2023-05-10T08:50:22.993Z,3.13
2023-05-10T08:51:27.862Z,3.05
2023-05-10T08:52:31.474Z,3.28
2023-05-10T08:53:37.523Z,2.88
2023-05-10T08:54:40.097Z,3.00
2023-05-10T08:55:43.767Z,2.40
2023-05-10T08:56:47.372Z,2.58
2023-05-10T08:57:51.997Z,3.03
2023-05-10T08:58:54.211Z,2.38
2023-05-10T08:59:56.394Z,2.38
2023-05-10T09:00:59.324Z,3.00
2023-05-10T09:02:02.512Z,2.53
2023-05-10T09:03:07.169Z,2.95
2023-05-10T09:04:09.502Z,2.50
2023-05-10T09:05:11.908Z,2.45
2023-05-10T09:06:14.761Z,2.40
2023-05-10T09:07:18.090Z,2.75
2023-05-10T09:08:21.367Z,2.90
2023-05-10T09:09:25.336Z,2.08
2023-05-10T09:10:29.050Z,2.58
2023-05-10T09:11:32.513Z,2.80
2023-05-10T09:12:34.739Z,2.95
2023-05-10T09:13:37.621Z,2.63
2023-05-10T09:14:40.554Z,2.67
2023-05-10T09:15:44.323Z,2.72
2023-05-10T09:16:47.014Z,2.28
2023-05-10T09:17:50.489Z,2.40
2023-05-10T09:18:53.396Z,2.90
2023-05-10T09:20:04.999Z,2.65
2023-05-10T09:22:10.935Z,2.47
2023-05-10T09:23:13.182Z,2.50
2023-05-10T09:24:15.403Z,2.63
2023-05-10T09:25:18.331Z,3.05
2023-05-10T09:26:24.582Z,2.45
2023-05-10T09:27:29.782Z,2.60
2023-05-10T09:28:51.034Z,2.10
2023-05-10T09:29:55.399Z,2.38
2023-05-10T09:30:57.710Z,2.60
2023-05-10T09:32:00.202Z,1.80
2023-05-10T09:33:02.921Z,2.50
2023-05-10T09:34:05.557Z,2.55
2023-05-10T09:35:19.330Z,2.20
2023-05-10T09:36:21.682Z,2.15
2023-05-10T09:37:30.798Z,2.53
2023-05-10T09:38:49.810Z,2.00
2023-05-10T09:39:56.026Z,2.20
2023-05-10T09:40:58.768Z,2.00
2023-05-10T09:42:04.825Z,2.25
2023-05-10T09:43:08.692Z,2.20
2023-05-10T09:44:11.063Z,1.90
2023-05-10T09:45:13.270Z,2.15
2023-05-10T09:46:18.921Z,1.95
2023-05-10T09:47:21.320Z,2.47
2023-05-10T09:48:24.863Z,2.08
2023-05-10T09:49:27.837Z,2.13
2023-05-10T09:50:31.208Z,2.63
2023-05-10T09:51:36.167Z,2.53
2023-05-10T09:53:00.318Z,1.92
2023-05-10T09:54:16.642Z,2.40
2023-05-10T09:55:21.553Z,2.35
2023-05-10T09:56:44.073Z,2.80
2023-05-10T09:57:48.991Z,2.10
2023-05-10T09:59:04.022Z,2.20
2023-05-10T10:00:07.351Z,2.10
2023-05-10T10:01:15.718Z,2.13
2023-05-10T10:02:18.132Z,1.85
2023-05-10T10:03:22.171Z,2.30
2023-05-10T10:04:25.130Z,2.13
2023-05-10T10:05:31.872Z,2.47
2023-05-10T10:06:38.969Z,2.38
2023-05-10T10:07:41.447Z,2.60
2023-05-10T10:08:43.875Z,2.10
2023-05-10T10:09:46.768Z,2.15
2023-05-10T10:10:50.490Z,1.70
2023-05-10T10:11:53.530Z,2.65
2023-05-10T10:12:56.409Z,1.85
2023-05-10T10:13:59.204Z,2.17
2023-05-10T10:15:02.463Z,2.00
2023-05-10T10:16:05.136Z,2.10
2023-05-10T10:17:09.150Z,2.03
2023-05-10T10:18:18.442Z,1.80
2023-05-10T10:19:21.633Z,2.00
2023-05-10T10:20:25.010Z,2.05
2023-05-10T10:21:27.927Z,2.22
2023-05-10T10:22:30.426Z,2.15
2023-05-10T10:23:32.812Z,2.17
2023-05-10T10:24:35.176Z,2.70
2023-05-10T10:25:39.000Z,2.13
2023-05-10T10:26:43.811Z,2.10
2023-05-10T10:27:52.021Z,2.40
2023-05-10T10:29:41.594Z,2.20
2023-05-10T10:30:48.194Z,2.10
2023-05-10T10:32:02.871Z,2.53
2023-05-10T10:33:32.043Z,1.70
2023-05-10T10:34:34.976Z,2.10
2023-05-10T10:35:37.681Z,2.38
2023-05-10T10:36:47.547Z,2.40
2023-05-10T10:37:51.845Z,2.05
2023-05-10T10:39:01.571Z,1.83
2023-05-10T10:40:33.592Z,1.80
2023-05-10T10:41:41.841Z,1.88
2023-05-10T10:42:50.945Z,1.98
2023-05-10T10:44:30.336Z,2.08
2023-05-10T10:45:32.808Z,2.10
2023-05-10T10:46:35.472Z,1.90
2023-05-10T10:47:38.650Z,2.28
2023-05-10T10:48:42.735Z,2.00
2023-05-10T10:50:08.996Z,2.17
2023-05-10T10:51:12.914Z,2.17
2023-05-10T10:52:34.616Z,1.88
2023-05-10T10:53:38.188Z,2.42
2023-05-10T10:54:48.038Z,2.10
2023-05-10T10:55:50.223Z,2.08
2023-05-10T10:57:12.769Z,1.55
2023-05-10T10:58:35.263Z,1.80
2023-05-10T10:59:42.013Z,1.90
2023-05-10T11:00:46.358Z,2.00
2023-05-10T11:01:53.125Z,2.22
2023-05-10T11:03:03.743Z,2.05
2023-05-10T11:04:05.949Z,1.60
2023-05-10T11:05:34.107Z,1.88
2023-05-10T11:06:37.193Z,1.98
2023-05-10T11:07:59.480Z,1.95
2023-05-10T11:09:09.628Z,1.80
2023-05-10T11:10:12.383Z,1.83
2023-05-10T11:11:16.207Z,2.25
2023-05-10T11:12:18.440Z,2.33
2023-05-10T11:13:31.019Z,2.05
2023-05-10T11:14:33.292Z,2.05
2023-05-10T11:15:38.533Z,1.90
2023-05-10T11:16:45.126Z,1.77
2023-05-10T11:17:53.012Z,2.33
2023-05-10T11:18:55.330Z,1.98
2023-05-10T11:20:25.889Z,2.13
2023-05-10T11:21:28.235Z,1.88
2023-05-10T11:22:51.961Z,2.05
2023-05-10T11:23:59.250Z,1.83
2023-05-10T11:25:02.306Z,1.75
2023-05-10T11:26:05.886Z,2.15
2023-05-10T11:27:08.193Z,1.90
2023-05-10T11:28:11.288Z,2.00
2023-05-10T11:29:14.701Z,1.70
2023-05-10T11:30:18.404Z,1.70
2023-05-10T11:31:21.936Z,1.35
2023-05-10T11:32:24.494Z,1.77
2023-05-10T11:33:27.051Z,1.90
2023-05-10T11:34:35.843Z,1.65
2023-05-10T11:35:43.041Z,1.70
2023-05-10T11:36:52.695Z,1.67
2023-05-10T11:37:55.062Z,1.67
2023-05-10T11:38:57.979Z,1.98
2023-05-10T11:40:00.188Z,1.73
2023-05-10T11:41:02.406Z,1.80
2023-05-10T11:42:04.817Z,1.85
2023-05-10T11:43:07.441Z,1.77
2023-05-10T11:44:10.491Z,1.50
2023-05-10T11:45:12.735Z,1.80
2023-05-10T11:46:14.935Z,1.85
2023-05-10T11:47:17.275Z,1.73
2023-05-10T11:48:23.261Z,2.15
2023-05-10T11:49:26.985Z,1.75
2023-05-10T11:50:29.785Z,1.60
2023-05-10T11:51:36.138Z,1.83
2023-05-10T11:52:38.764Z,2.03
2023-05-10T11:53:40.929Z,2.22
2023-05-10T11:54:55.913Z,1.60
2023-05-10T11:56:07.430Z,1.55
2023-05-10T11:57:09.742Z,2.00
2023-05-10T11:58:12.158Z,2.40
2023-05-10T11:59:15.872Z,1.75
2023-05-10T12:00:18.497Z,2.17
2023-05-10T12:01:22.454Z,2.00
2023-05-10T12:02:25.263Z,2.00
2023-05-10T12:03:29.234Z,2.05
2023-05-10T12:04:32.214Z,1.88
2023-05-10T12:05:35.255Z,1.73
2023-05-10T12:06:41.514Z,1.88
2023-05-10T12:07:43.851Z,1.85
2023-05-10T12:08:47.751Z,1.73
2023-05-10T12:10:05.024Z,1.70
2023-05-10T12:11:09.479Z,2.00
2023-05-10T12:12:17.278Z,1.98
2023-05-10T12:13:21.546Z,2.17
2023-05-10T12:14:23.924Z,1.73
2023-05-10T12:15:26.550Z,1.60
2023-05-10T12:16:30.534Z,1.73
2023-05-10T12:17:33.039Z,1.70
2023-05-10T12:18:35.325Z,1.75
2023-05-10T12:19:40.557Z,1.45
2023-05-10T12:20:42.970Z,2.00
2023-05-10T12:21:45.519Z,1.63
2023-05-10T12:22:48.690Z,1.98
2023-05-10T12:23:56.593Z,1.90
2023-05-10T12:24:59.808Z,2.05
2023-05-10T12:26:06.050Z,1.98
2023-05-10T12:27:11.177Z,1.63
2023-05-10T12:28:13.602Z,1.73
2023-05-10T12:29:17.875Z,1.90
2023-05-10T12:30:24.964Z,1.98
2023-05-10T12:31:27.734Z,2.10
2023-05-10T12:32:42.572Z,3.38
2023-05-10T12:33:46.282Z,1.92
2023-05-10T12:34:49.164Z,1.77
2023-05-10T12:35:54.265Z,1.45
2023-05-10T12:36:56.842Z,1.60
2023-05-10T12:37:59.897Z,1.77
2023-05-10T12:39:05.907Z,1.98
2023-05-10T12:40:10.426Z,1.65
2023-05-10T12:41:14.575Z,1.67
2023-05-10T12:42:17.589Z,1.42
2023-05-10T12:43:19.954Z,1.80
2023-05-10T12:44:22.353Z,1.63
2023-05-10T12:45:25.027Z,1.80
2023-05-10T12:46:29.128Z,1.90
2023-05-10T12:47:31.617Z,1.98
2023-05-10T12:48:35.106Z,1.88
2023-05-10T12:49:37.395Z,2.08
2023-05-10T12:50:39.686Z,2.03
2023-05-10T12:51:42.314Z,1.58
2023-05-10T12:52:44.569Z,2.08
2023-05-10T12:53:49.726Z,2.00
2023-05-10T12:54:52.140Z,1.90
2023-05-10T12:55:54.918Z,2.42
2023-05-10T12:56:57.531Z,2.17
2023-05-10T12:57:59.854Z,1.80
2023-05-10T12:59:02.164Z,1.80
2023-05-10T13:00:06.367Z,2.10
2023-05-10T13:01:09.594Z,1.83
2023-05-10T13:02:11.880Z,2.35
2023-05-10T13:03:14.620Z,2.20
2023-05-10T13:04:16.959Z,1.90
2023-05-10T13:05:19.349Z,2.00
2023-05-10T13:06:21.804Z,2.17
2023-05-10T13:07:24.193Z,1.98
2023-05-10T13:08:26.583Z,1.67
2023-05-10T13:09:31.966Z,1.98
2023-05-10T13:10:34.368Z,1.70
2023-05-10T13:11:36.623Z,1.75
2023-05-10T13:12:38.989Z,1.85
2023-05-10T13:13:41.324Z,1.80
2023-05-10T13:14:44.022Z,2.00
2023-05-10T13:15:46.237Z,2.00
2023-05-10T13:16:48.781Z,1.95
2023-05-10T13:17:51.319Z,2.38
2023-05-10T13:18:53.605Z,1.88
2023-05-10T13:19:56.054Z,2.00
2023-05-10T13:20:58.518Z,1.67
2023-05-10T13:22:00.821Z,2.00
2023-05-10T13:23:03.695Z,1.50
2023-05-10T13:24:06.719Z,2.53
2023-05-10T13:25:09.537Z,2.05
2023-05-10T13:26:11.956Z,1.85
2023-05-10T13:27:14.321Z,1.98
2023-05-10T13:28:16.499Z,1.50
2023-05-10T13:29:19.185Z,1.60
2023-05-10T13:30:21.585Z,1.95
2023-05-10T13:31:23.848Z,1.73
2023-05-10T13:32:27.194Z,1.90
2023-05-10T13:33:29.424Z,1.77
2023-05-10T13:34:31.659Z,2.47
2023-05-10T13:35:34.014Z,1.35
2023-05-10T13:36:36.257Z,1.90
2023-05-10T13:37:39.228Z,2.00
2023-05-10T13:38:41.438Z,1.75
2023-05-10T13:39:43.757Z,1.75
2023-05-10T13:40:46.218Z,1.60
2023-05-10T13:41:48.647Z,2.20
2023-05-10T13:42:51.383Z,1.70
2023-05-10T13:43:53.616Z,1.83
2023-05-10T13:44:55.816Z,2.13
2023-05-10T13:45:58.261Z,2.17
2023-05-10T13:47:00.821Z,1.73
2023-05-10T13:48:03.587Z,2.10
2023-05-10T13:49:05.989Z,2.00
2023-05-10T13:50:08.840Z,1.52
2023-05-10T13:51:11.066Z,1.65
2023-05-10T13:52:13.505Z,2.28
2023-05-10T13:53:15.981Z,1.90
2023-05-10T13:54:20.529Z,1.80
2023-05-10T13:55:23.326Z,1.70
2023-05-10T13:56:25.589Z,1.85
2023-05-10T13:57:29.838Z,2.17
2023-05-10T13:58:32.644Z,1.80
2023-05-10T13:59:34.996Z,1.80
2023-05-10T14:00:37.508Z,1.75
2023-05-10T14:01:39.949Z,1.90
2023-05-10T14:02:42.221Z,1.95
2023-05-10T14:03:44.879Z,1.80
2023-05-10T14:04:49.526Z,1.80
2023-05-10T14:05:51.739Z,1.85
2023-05-10T14:06:54.093Z,1.85
2023-05-10T14:07:56.876Z,1.83
2023-05-10T14:08:59.071Z,1.95
2023-05-10T14:10:01.786Z,2.00
2023-05-10T14:11:04.183Z,1.90
2023-05-10T14:12:06.667Z,1.73
2023-05-10T14:13:09.302Z,1.60
2023-05-10T14:14:11.593Z,2.17
2023-05-10T14:15:13.812Z,1.48
2023-05-10T14:16:16.511Z,1.77
2023-05-10T14:17:18.929Z,1.80
2023-05-10T14:18:21.614Z,1.92
2023-05-10T14:19:23.922Z,2.05
2023-05-10T14:20:26.256Z,2.00
2023-05-10T14:21:30.466Z,2.33
2023-05-10T14:22:32.922Z,1.90